AirNav   Air Wisconsin pilot careers
 
 300 users online  

X10 Belle Glade State Municipal Airport
Belle Glade, Florida, USA

GOING TO BELLE GLADE?


FAA INFORMATION EFFECTIVE 29 MARCH 2018

Location

FAA Identifier: X10
Lat/Long: 26-41-53.9000N / 080-39-38.9000W
26-41.898333N / 080-39.648333W
26.6983056 / -80.6608056
(estimated)
Elevation: 14 ft. / 4 m (estimated)
Variation: 03W (1985)
From city: 1 mile NE of BELLE GLADE, FL
Time zone: UTC -4 (UTC -5 during Standard Time)
Zip code: 33430

Airport Operations

Airport use: Open to the public
Activation date: 04/1940
Control tower: no
ARTCC: MIAMI CENTER
FSS: MIAMI FLIGHT SERVICE STATION
NOTAMs facility: MIA (NOTAM-D service available)
Attendance: UNATNDD
Wind indicator: lighted, WIND SOCK TORN OFF
Segmented circle: no

Airport Communications

CTAF: 122.9

Nearby radio navigation aids

VOR radial/distance  VOR name  Freq  Var
PHKr162/5.3PAHOKEE VOR/DME115.4000E
PBIr275/30.8PALM BEACH VORTAC115.7003W
LBVr100/39.9LA BELLE VORTAC110.4001E

 
NDB name  Hdg/Dist  Freq  Var  ID
UNITED239/21.540505WUTX ..- - -..-

Airport Services

Airframe service: NONE
Powerplant service: NONE
Bottled oxygen: NONE
Bulk oxygen: NONE

Runway Information

Runway 9/27

Dimensions: 3750 x 50 ft. / 1143 x 15 m
Surface: asphalt, in excellent condition
RUNWAY 9  RUNWAY 27
Latitude: 26-41.898167N26-41.897333N
Longitude: 080-39.992167W080-39.303000W
Elevation: 14.0 ft.11.0 ft.
Gradient: 0.1%0.1%
Traffic pattern: leftleft
Runway heading: 093 magnetic, 090 true273 magnetic, 270 true
Displaced threshold: 225 ft.75 ft.
Declared distances: TORA:3750 TODA:3750TORA:3750 TODA:3750
Markings: basic, in good conditionbasic, in good condition
Obstructions: 35 ft. tree, 900 ft. from runway, 30 ft. left of centerline, 20:1 slope to clear52 ft. pole, 1374 ft. from runway, 30 ft. left of centerline, 22:1 slope to clear

Airport Ownership and Management from official FAA records

Ownership: Publicly-owned
Owner: CITY OF BELLE GLADE
110 DR. MARTIN LUTHER KING JR. BLVD
BELLE GLADE, FL 33430-3900
Phone 561-996-0100
CONTACT PERSON: LOMAX HARRELLE 561-992-1601
Manager: MARCOS MONTES DE OCA
110 DR. MARTIN LUTHER KING JR. BLVD
BELLE GLADE, FL 33430
Phone 561-996-0100

Airport Operational Statistics

Aircraft based on the field: 11
Single engine airplanes: 10
Helicopters: 1
    
Aircraft operations: avg 34/week *
67% local general aviation
33% transient general aviation
* for 12-month period ending 22 March 2017

Additional Remarks

RY 09 NIGHT LNDGS NOT ADVISED DUE TO UNLGTD POWER LINES IN APCH.
BERM FULL LENGTH OF RY 113 FT N OF CNTRLN, RY 09/27.

Instrument Procedures

There are no published instrument procedures at X10.

Some nearby airports with instrument procedures:

KPHK - Palm Beach County Glades Airport (5 nm N)
2IS - Airglades Airport (21 nm W)
06FA - William P Gwinn Airport (22 nm NE)
F45 - North Palm Beach County General Aviation Airport (25 nm E)
KPBI - Palm Beach International Airport (30 nm E)
 
Loc | Ops | Rwys | IFR | FBO | Links
Com | Nav | Svcs | Stats | Notes

Reliance Aviation
AirBoss

 
Area around X10 (Belle Glade State Municipal Airport)
 
Road maps at: MapQuest Bing Google
 
Aerial photo
WARNING: Photo may not be current or correct
Aerial photo of X10 (Belle Glade State Municipal Airport)
Do you have a better or more recent aerial photo of Belle Glade State Municipal Airport that you would like to share? If so, please send us your photo.

 
Sectional chart

 
Airport distance calculator
Flying to Belle Glade State Municipal Airport? Find the distance to fly.

From to X10

Sunrise and sunset
Times for 22-Apr-2018
 Local
(UTC-4)
 Zulu
(UTC)
Morning civil twilight06:2910:29
Sunrise06:5310:53
Sunset19:4923:49
Evening civil twilight20:1300:13

Current date and time
Zulu (UTC)  22-Apr-2018 07:59:56
Local (UTC-4)  22-Apr-2018 03:59:56
 
METAR
KF45 
25nm E 
220735Z AUTO 09009KT 10SM BKN019 BKN025 OVC041 23/22 A3007 RMK AO2
KPBI 
30nm E 
220753Z 10014KT 10SM SCT018 SCT026 24/21 A3007 RMK AO2 SLP181 T02390211
KLNA 
32nm E 
220735Z AUTO 09013G16KT 10SM BKN019 BKN026 BKN033 24/21 A3007 RMK AO2 T02420214
KOBE 
35nm N 
220735Z AUTO 00000KT 7SM SCT024 SCT031 21/20 A3009 RMK AO2
KBCT 
36nm SE 
220247Z 09012KT 9SM BKN028 25/22 A3012 RMK LAST
KSUA 
38nm NE 
220735Z AUTO 10012G18KT 10SM SCT035 BKN045 24/20 A3009 RMK AO2
KFXE 
39nm SE 
220753Z 09011KT 10SM FEW017 SCT025 24/22 A3005 RMK AO2 SLP177 T02440217
KPMP 
40nm SE 
220753Z AUTO 08011KT 8SM CLR 25/23 A3005 RMK AO2 SLP177 T02500228
KIMM 
43nm W 
220735Z AUTO 04004KT 6SM BR CLR 20/19 A3008 RMK AO2
KFLL 
47nm SE 
220753Z 10016KT 10SM FEW026 SCT038 BKN048 25/22 A3004 RMK AO2 LTG DSNT S SLP172 T02500222 $
TAF
KPBI 
30nm E 
220540Z 2206/2306 10011KT P6SM VCSH SCT020 BKN035 TEMPO 2206/2209 VRB15KT 4SM SHRA SCT015 BKN025 FM221400 11015KT P6SM VCSH SCT025 BKN040 FM230000 11011KT P6SM VCSH SCT020 BKN035
KSUA 
38nm NE 
220529Z 2206/2306 09013G21KT P6SM VCSH SCT025 BKN035 TEMPO 2208/2212 3SM SHRA BKN025 FM221300 11013G19KT P6SM VCSH SCT025 BKN035 FM221800 11017G24KT P6SM VCTS SCT020CB BKN040 FM230000 11010KT P6SM VCSH SCT025 BKN060
NOTAMs
Click for the latest NOTAMs
NOTAMs are issued by the DoD/FAA and will open in a separate window not controlled by AirNav.

 

 
 

Would you like to see your business listed on this page?

 If your business provides an interesting product or service to pilots, flight crews, aircraft, or users of the Belle Glade State Municipal Airport, you should consider listing it here.  To start the listing process, click on the button below
 
Add a business
 

Other Pages about Belle Glade State Municipal Airport

Update a link
 
Copyright © AirNav, LLC. All rights reserved. Privacy Policy  Contact